Time;durP1;ratioP1;P1;durP2;ratioP2;P2;SDS_P1;SDS_P2;PMS_P1;PMS_P2;Temp;Humidity;BMP_temperature;BMP_pressure;BME280_temperature;BME280_humidity;BME280_pressure;Samples;Min_cycle;Max_cycle;Signal;HPM_P1;HPM_P2
2022/11/18 00:01:07;;;;;;;6.65;5.05;;;22.30;40.60;;;;;;7715857;22;81373;-59
2022/11/18 00:04:07;;;;;;;6.55;4.32;;;22.30;40.70;;;;;;7714204;22;80551;-58
2022/11/18 00:07:08;;;;;;;8.70;4.95;;;22.30;40.90;;;;;;7714695;22;81844;-58
2022/11/18 00:10:08;;;;;;;6.15;4.10;;;22.30;40.50;;;;;;7716058;22;80061;-59
2022/11/18 00:16:28;;;;;;;5.43;4.13;;;22.30;40.60;;;;;;7703327;22;80758;-58
2022/11/18 00:19:28;;;;;;;5.68;4.25;;;22.30;41.00;;;;;;7690726;22;80272;-59
2022/11/18 00:22:29;;;;;;;6.35;4.28;;;22.30;40.60;;;;;;7714662;22;81076;-59
2022/11/18 00:25:29;;;;;;;6.00;3.90;;;22.30;40.50;;;;;;7716790;22;80065;-58
2022/11/18 00:28:30;;;;;;;5.20;4.30;;;22.30;40.60;;;;;;7715156;22;80746;-59
2022/11/18 00:31:30;;;;;;;4.43;3.80;;;22.30;40.60;;;;;;7714627;22;80371;-58
2022/11/18 00:34:31;;;;;;;5.88;4.18;;;22.30;40.60;;;;;;7713350;22;81810;-58
2022/11/18 00:37:31;;;;;;;5.78;4.28;;;22.20;40.50;;;;;;7686074;22;83365;-58
2022/11/18 00:40:32;;;;;;;5.50;3.92;;;22.30;40.70;;;;;;7715845;22;80234;-59
2022/11/18 00:43:32;;;;;;;6.53;3.78;;;22.30;40.80;;;;;;7712943;22;81071;-58
2022/11/18 00:46:32;;;;;;;4.88;3.85;;;22.30;40.80;;;;;;7716281;22;80362;-59
2022/11/18 00:49:33;;;;;;;5.70;3.83;;;22.20;40.80;;;;;;7712840;22;81214;-58
2022/11/18 01:14:52;;;;;;;4.97;4.10;;;22.20;40.70;;;;;;7711963;22;80918;-58
2022/11/18 01:17:52;;;;;;;4.53;3.45;;;22.20;40.70;;;;;;7714688;22;81211;-58
2022/11/18 01:20:53;;;;;;;4.97;3.50;;;22.20;40.70;;;;;;7716385;22;80640;-58
2022/11/18 01:23:54;;;;;;;5.88;4.10;;;22.20;40.90;;;;;;7714504;22;81635;-58
2022/11/18 01:26:54;;;;;;;5.55;3.55;;;22.20;40.90;;;;;;7716403;22;80224;-58
2022/11/18 01:29:54;;;;;;;5.82;3.55;;;22.20;41.00;;;;;;7714696;22;82135;-58
2022/11/18 01:32:55;;;;;;;6.88;3.80;;;22.20;41.00;;;;;;7715065;22;80681;-58
2022/11/18 01:35:55;;;;;;;4.72;3.70;;;22.20;41.00;;;;;;7714629;22;80201;-58
2022/11/18 01:38:56;;;;;;;4.28;3.38;;;22.20;41.00;;;;;;7714749;22;80672;-59
2022/11/18 01:41:56;;;;;;;4.50;3.80;;;22.20;41.00;;;;;;7714983;22;80267;-56
2022/11/18 01:44:57;;;;;;;5.00;3.63;;;22.20;41.00;;;;;;7714012;22;80681;-56
2022/11/18 01:47:57;;;;;;;5.47;3.45;;;22.20;41.10;;;;;;7713583;22;80242;-57
2022/11/18 01:50:58;;;;;;;6.07;4.13;;;22.20;41.10;;;;;;7716160;22;81226;-57
2022/11/18 01:53:59;;;;;;;5.80;3.78;;;22.20;41.20;;;;;;7715871;22;80852;-57
2022/11/18 01:56:59;;;;;;;7.15;4.38;;;22.20;41.60;;;;;;7712595;22;80343;-57
2022/11/18 02:00:00;;;;;;;5.28;4.03;;;22.20;41.10;;;;;;7713849;22;82175;-57
2022/11/18 02:03:00;;;;;;;4.03;3.47;;;22.10;41.20;;;;;;7715247;22;80384;-57
2022/11/18 02:06:00;;;;;;;5.20;3.33;;;22.20;41.20;;;;;;7713686;22;80866;-57
2022/11/18 02:09:01;;;;;;;5.03;3.65;;;22.20;41.00;;;;;;7715358;22;82654;-57
2022/11/18 02:12:01;;;;;;;4.10;3.10;;;22.10;41.10;;;;;;7714685;22;80443;-57
2022/11/18 02:15:02;;;;;;;4.07;3.38;;;22.10;41.00;;;;;;7715664;22;80163;-57
2022/11/18 02:18:02;;;;;;;5.22;3.88;;;22.20;41.10;;;;;;7714031;22;80449;-56
2022/11/18 02:21:03;;;;;;;4.35;3.53;;;22.10;41.10;;;;;;7714901;22;80509;-56
2022/11/18 02:24:03;;;;;;;5.53;3.95;;;22.10;41.00;;;;;;7714198;22;80299;-56
2022/11/18 02:27:04;;;;;;;4.38;3.55;;;22.10;41.00;;;;;;7713660;22;80259;-58
2022/11/18 02:30:07;;;;;;;5.80;3.65;;;22.10;41.00;;;;;;7715473;22;81791;-57
2022/11/18 02:33:07;;;;;;;4.72;3.65;;;22.10;41.00;;;;;;7714638;22;81856;-57
2022/11/18 02:36:08;;;;;;;5.50;4.22;;;22.10;40.90;;;;;;7715111;22;80540;-57
2022/11/18 02:39:08;;;;;;;4.97;3.60;;;22.10;41.00;;;;;;7714968;22;80131;-56
2022/11/18 02:42:09;;;;;;;5.03;3.70;;;22.10;41.10;;;;;;7713470;22;81132;-57
2022/11/18 02:45:09;;;;;;;4.47;3.70;;;22.00;40.90;;;;;;7715759;22;80977;-56
2022/11/18 02:48:10;;;;;;;5.57;4.10;;;22.10;40.90;;;;;;7712992;22;80257;-53
2022/11/18 02:51:10;;;;;;;4.75;3.90;;;22.10;41.00;;;;;;7714015;22;80047;-54
2022/11/18 02:54:10;;;;;;;4.85;3.65;;;22.10;41.10;;;;;;7714196;22;80525;-56
2022/11/18 02:57:11;;;;;;;7.60;3.88;;;22.00;41.00;;;;;;7715627;22;81125;-55
2022/11/18 03:00:11;;;;;;;5.15;4.07;;;22.10;41.00;;;;;;7714903;22;80637;-54
2022/11/18 03:03:12;;;;;;;4.95;4.40;;;22.10;41.00;;;;;;7717066;22;81140;-55
2022/11/18 03:06:12;;;;;;;5.57;3.80;;;22.10;40.90;;;;;;7715079;22;81471;-57
2022/11/18 03:09:13;;;;;;;7.25;4.15;;;22.10;40.70;;;;;;7716126;22;80381;-57
2022/11/18 03:12:13;;;;;;;4.93;3.80;;;22.10;40.70;;;;;;7714202;22;81274;-56
2022/11/18 03:15:14;;;;;;;4.72;3.90;;;22.10;40.80;;;;;;7692960;22;80196;-56
2022/11/18 03:18:14;;;;;;;5.60;3.72;;;22.10;40.70;;;;;;7677941;22;81405;-56
2022/11/18 03:21:15;;;;;;;6.47;4.28;;;22.10;40.80;;;;;;7678544;22;80101;-56
2022/11/18 03:24:15;;;;;;;5.88;3.90;;;22.10;40.70;;;;;;7677902;22;81966;-55
2022/11/18 03:27:16;;;;;;;6.22;4.43;;;22.10;40.60;;;;;;7677605;22;80186;-56
2022/11/18 03:30:16;;;;;;;6.32;4.30;;;22.10;40.60;;;;;;7678376;22;80556;-57
2022/11/18 03:33:17;;;;;;;5.22;3.97;;;22.10;40.60;;;;;;7675770;22;82265;-57
2022/11/18 03:36:17;;;;;;;5.43;3.70;;;22.10;40.50;;;;;;7677067;22;81687;-57
2022/11/18 03:39:18;;;;;;;5.53;4.00;;;22.10;40.60;;;;;;7678117;22;80896;-56
2022/11/18 03:42:19;;;;;;;7.30;3.90;;;22.10;40.80;;;;;;7675750;22;80555;-56
2022/11/18 03:45:19;;;;;;;7.97;4.10;;;22.10;40.80;;;;;;7677723;22;80106;-57
2022/11/18 03:48:20;;;;;;;6.20;4.03;;;22.10;40.70;;;;;;7676548;22;80242;-57
2022/11/18 03:51:20;;;;;;;6.05;4.00;;;22.10;40.60;;;;;;7646162;22;82738;-58
2022/11/18 03:54:21;;;;;;;5.00;4.28;;;22.10;40.60;;;;;;7678320;22;80632;-58
2022/11/18 03:57:21;;;;;;;4.57;3.78;;;22.10;40.60;;;;;;7677090;22;80777;-58
2022/11/18 04:00:21;;;;;;;6.85;4.72;;;22.10;40.70;;;;;;7678780;22;81058;-59
2022/11/18 04:03:25;;;;;;;5.72;4.20;;;22.10;40.60;;;;;;7677075;22;82447;-58
2022/11/18 04:06:25;;;;;;;6.15;4.28;;;22.10;40.60;;;;;;7678434;22;80938;-59
2022/11/18 04:09:26;;;;;;;5.13;3.67;;;22.10;40.60;;;;;;7674343;22;80277;-58
2022/11/18 04:12:26;;;;;;;4.85;3.67;;;22.10;40.60;;;;;;7676325;22;81490;-58
2022/11/18 04:15:27;;;;;;;5.60;3.95;;;22.10;40.50;;;;;;7687419;22;80413;-58
2022/11/18 04:18:27;;;;;;;6.82;4.45;;;22.10;40.50;;;;;;7702932;22;81551;-58
2022/11/18 04:21:28;;;;;;;6.53;4.00;;;22.10;40.10;;;;;;7716251;22;80594;-58
2022/11/18 04:24:28;;;;;;;9.68;5.03;;;22.20;39.80;;;;;;7715121;22;80654;-58
2022/11/18 04:27:29;;;;;;;6.82;4.63;;;22.20;39.40;;;;;;7715891;22;80605;-57
2022/11/18 04:30:29;;;;;;;6.22;4.45;;;22.30;39.40;;;;;;7712842;22;81782;-56
2022/11/18 04:33:30;;;;;;;5.40;4.40;;;22.30;39.10;;;;;;7716423;22;80699;-57
2022/11/18 04:36:30;;;;;;;5.93;4.80;;;22.40;39.30;;;;;;7714915;22;80381;-55
2022/11/18 04:39:31;;;;;;;6.88;4.55;;;22.40;39.00;;;;;;7716110;22;80513;-56
2022/11/18 04:42:31;;;;;;;5.15;4.10;;;22.40;39.10;;;;;;7713078;22;80475;-56
2022/11/18 04:45:32;;;;;;;7.75;4.47;;;22.50;39.10;;;;;;7716384;22;80833;-56
2022/11/18 04:48:32;;;;;;;8.77;4.53;;;22.50;39.10;;;;;;7706886;22;81688;-56
2022/11/18 04:51:33;;;;;;;6.00;4.10;;;22.60;39.10;;;;;;7714223;22;80639;-57
2022/11/18 04:54:33;;;;;;;5.15;3.90;;;22.60;39.00;;;;;;7713799;22;81512;-57
2022/11/18 04:57:34;;;;;;;4.93;4.05;;;22.60;39.00;;;;;;7711717;22;81656;-56
2022/11/18 05:00:34;;;;;;;6.28;4.78;;;22.60;39.00;;;;;;7711095;22;80259;-55
2022/11/18 05:03:35;;;;;;;6.35;3.90;;;22.70;39.20;;;;;;7713575;22;81070;-55
2022/11/18 05:06:35;;;;;;;6.00;4.55;;;22.70;39.00;;;;;;7710217;22;81044;-56
2022/11/18 05:09:36;;;;;;;5.70;3.88;;;22.70;38.90;;;;;;7712645;22;82080;-57
2022/11/18 05:12:48;;;;;;;4.90;4.05;;;22.70;38.80;;;;;;7712991;22;81231;-57
2022/11/18 05:15:49;;;;;;;6.82;4.68;;;22.70;38.60;;;;;;7710757;22;81508;-56
2022/11/18 05:18:49;;;;;;;7.78;4.47;;;22.80;38.50;;;;;;7711926;22;81209;-56
2022/11/18 05:21:50;;;;;;;5.80;4.55;;;22.80;38.30;;;;;;7713622;22;81942;-55
2022/11/18 05:24:50;;;;;;;6.20;4.32;;;22.80;38.10;;;;;;7712153;22;81358;-57
2022/11/18 05:27:51;;;;;;;5.32;4.40;;;22.80;37.70;;;;;;7688205;22;83379;-57
2022/11/18 05:30:51;;;;;;;6.55;4.85;;;22.90;37.40;;;;;;7686648;22;81845;-57
2022/11/18 05:33:52;;;;;;;6.97;4.88;;;22.90;37.30;;;;;;7713914;22;80430;-56
2022/11/18 05:36:52;;;;;;;4.93;4.10;;;22.90;37.20;;;;;;7712978;22;81964;-56
2022/11/18 05:39:53;;;;;;;5.32;3.83;;;22.90;37.70;;;;;;7714765;22;81756;-58
2022/11/18 05:43:12;;;;;;;7.55;4.75;;;22.90;38.50;;;;;;7711433;22;80005;-58
2022/11/18 05:46:12;;;;;;;5.53;4.10;;;22.90;38.80;;;;;;7714760;22;80983;-60
2022/11/18 05:49:13;;;;;;;5.20;3.95;;;22.90;39.10;;;;;;7713647;22;80279;-58
2022/11/18 05:52:13;;;;;;;6.32;4.30;;;22.90;39.10;;;;;;7715515;22;80383;-61
2022/11/18 05:55:14;;;;;;;5.30;4.20;;;23.00;39.60;;;;;;7711662;22;80173;-59
2022/11/18 05:58:14;;;;;;;6.85;4.22;;;23.00;39.60;;;;;;7699089;22;80621;-59
2022/11/18 06:01:15;;;;;;;5.53;3.97;;;23.00;39.60;;;;;;7700917;22;80878;-57
2022/11/18 06:04:15;;;;;;;7.05;4.40;;;23.00;39.40;;;;;;7708710;22;80398;-59
2022/11/18 06:07:16;;;;;;;6.00;4.63;;;23.00;39.00;;;;;;7710105;22;80570;-60
2022/11/18 06:10:16;;;;;;;8.38;4.45;;;23.00;39.30;;;;;;7708813;22;83811;-61
2022/11/18 06:13:17;;;;;;;6.13;4.47;;;23.00;39.20;;;;;;7707407;22;80934;-59
2022/11/18 06:16:17;;;;;;;6.13;4.20;;;23.00;39.20;;;;;;7712741;22;80758;-58
2022/11/18 06:19:18;;;;;;;7.57;4.93;;;22.90;39.00;;;;;;7711852;22;81424;-58
2022/11/18 06:22:18;;;;;;;6.47;4.50;;;22.90;39.60;;;;;;7707878;22;80681;-57
2022/11/18 06:25:18;;;;;;;8.38;4.28;;;22.90;39.30;;;;;;7706188;22;81268;-58
2022/11/18 06:28:19;;;;;;;5.25;3.97;;;22.80;39.90;;;;;;7708882;22;80488;-58
2022/11/18 06:31:20;;;;;;;7.55;4.80;;;22.80;39.60;;;;;;7710003;22;80767;-58
2022/11/18 06:34:20;;;;;;;6.63;4.70;;;22.80;39.30;;;;;;7711095;22;80043;-58
2022/11/18 06:37:20;;;;;;;5.38;3.88;;;22.80;39.20;;;;;;7686819;22;80835;-57
2022/11/18 06:40:21;;;;;;;6.30;4.55;;;22.80;39.00;;;;;;7715255;22;81208;-57
2022/11/18 06:43:40;;;;;;;5.53;4.53;;;22.80;39.00;;;;;;7716634;22;80248;-57
2022/11/18 06:46:56;;;;;;;7.95;5.28;;;22.70;39.00;;;;;;7716273;22;80921;-55
2022/11/18 06:49:56;;;;;;;8.48;4.63;;;22.70;39.00;;;;;;7712766;22;84384;-56
2022/11/18 06:52:57;;;;;;;6.53;4.65;;;22.70;38.90;;;;;;7714850;22;80567;-57
2022/11/18 06:55:57;;;;;;;5.75;4.53;;;22.70;39.00;;;;;;7716535;22;81519;-59
2022/11/18 06:58:58;;;;;;;6.20;4.78;;;22.60;39.00;;;;;;7716217;22;80694;-59
2022/11/18 07:01:58;;;;;;;4.70;4.18;;;22.60;39.10;;;;;;7711909;22;80280;-59
2022/11/18 07:04:59;;;;;;;7.55;4.85;;;22.60;38.90;;;;;;7708720;22;80714;-59
2022/11/18 07:08:00;;;;;;;6.13;4.75;;;22.50;38.60;;;;;;7662271;22;81467;-58
2022/11/18 07:11:00;;;;;;;9.63;6.55;;;22.50;38.70;;;;;;7571773;22;81882;-56
2022/11/18 07:14:01;;;;;;;11.90;7.78;;;22.40;37.90;;;;;;7577991;22;82197;-57
2022/11/18 07:17:01;;;;;;;8.95;6.85;;;21.80;39.40;;;;;;7712143;22;80277;-57
2022/11/18 07:20:02;;;;;;;13.15;8.35;;;21.80;39.50;;;;;;7693985;22;80582;-55
2022/11/18 07:23:02;;;;;;;9.15;6.95;;;21.60;38.70;;;;;;7712948;22;81481;-56
2022/11/18 07:26:03;;;;;;;11.45;7.55;;;21.50;38.30;;;;;;7713021;22;81861;-55
2022/11/18 07:29:03;;;;;;;11.27;7.10;;;21.40;37.80;;;;;;7712387;22;80444;-57
2022/11/18 07:32:04;;;;;;;9.30;6.97;;;21.30;38.10;;;;;;7703953;22;80530;-60
2022/11/18 07:35:04;;;;;;;11.20;7.65;;;21.30;38.00;;;;;;7699578;22;81514;-60
2022/11/18 07:38:05;;;;;;;11.98;7.30;;;21.20;37.60;;;;;;7702928;22;80474;-60
2022/11/18 07:41:05;;;;;;;12.60;7.43;;;21.10;37.20;;;;;;7705187;22;82272;-60
2022/11/18 07:44:06;;;;;;;10.15;6.53;;;21.00;37.40;;;;;;7704963;22;79985;-60
2022/11/18 07:47:06;;;;;;;12.50;7.60;;;20.90;37.70;;;;;;7704568;22;81272;-61
2022/11/18 07:50:07;;;;;;;11.55;7.22;;;20.90;37.80;;;;;;7705126;22;80213;-62
2022/11/18 07:53:07;;;;;;;9.38;6.88;;;20.90;38.70;;;;;;7708775;22;81206;-61
2022/11/18 07:56:08;;;;;;;9.40;7.03;;;20.50;37.00;;;;;;7712460;22;81226;-62
2022/11/18 07:59:08;;;;;;;10.30;7.18;;;20.10;37.20;;;;;;7715256;22;80105;-60
2022/11/18 08:02:09;;;;;;;9.90;7.07;;;19.70;37.90;;;;;;7713761;22;80440;-61
2022/11/18 08:05:09;;;;;;;11.05;6.60;;;19.50;37.90;;;;;;7712159;22;80355;-60
2022/11/18 08:08:10;;;;;;;10.65;6.82;;;19.20;38.40;;;;;;7710575;22;80490;-55
2022/11/18 08:11:10;;;;;;;10.45;6.68;;;19.10;38.80;;;;;;7707787;22;80847;-55
2022/11/18 08:14:10;;;;;;;11.02;7.60;;;18.80;39.10;;;;;;7705953;22;81041;-52
2022/11/18 08:17:11;;;;;;;9.52;6.50;;;18.50;39.50;;;;;;7705477;22;81128;-54
2022/11/18 08:20:11;;;;;;;9.60;6.43;;;18.40;39.70;;;;;;7707550;22;80343;-56
2022/11/18 08:23:12;;;;;;;9.50;6.80;;;18.30;40.00;;;;;;7706150;22;80614;-56
2022/11/18 08:26:13;;;;;;;9.38;6.93;;;18.20;40.20;;;;;;7704694;22;81123;-56
2022/11/18 08:29:13;;;;;;;10.77;6.70;;;18.20;40.60;;;;;;7706061;22;80460;-55
2022/11/18 08:32:13;;;;;;;10.88;7.10;;;18.10;40.60;;;;;;7705335;22;80470;-55
2022/11/18 08:35:14;;;;;;;12.20;7.38;;;18.10;40.20;;;;;;7705526;22;79913;-55
2022/11/18 08:38:14;;;;;;;9.07;7.22;;;18.10;40.40;;;;;;7706673;22;80773;-54
2022/11/18 08:41:15;;;;;;;11.85;7.53;;;18.00;40.80;;;;;;7701918;22;81022;-54
2022/11/18 08:44:15;;;;;;;10.88;7.07;;;17.90;40.70;;;;;;7703387;22;80451;-55
2022/11/18 08:47:16;;;;;;;10.00;6.75;;;17.90;40.80;;;;;;7713260;22;81701;-55
2022/11/18 08:50:16;;;;;;;12.50;7.85;;;17.80;41.00;;;;;;7713811;22;80337;-56
2022/11/18 08:53:17;;;;;;;13.10;7.38;;;17.70;40.90;;;;;;7713912;22;80905;-56
2022/11/18 08:56:17;;;;;;;9.18;6.82;;;17.70;40.90;;;;;;7713291;22;81425;-56
2022/11/18 08:59:18;;;;;;;11.52;7.28;;;17.60;41.10;;;;;;7716536;22;80706;-56
2022/11/18 09:02:18;;;;;;;11.05;7.65;;;17.60;41.00;;;;;;7706595;22;81429;-55
2022/11/18 09:05:19;;;;;;;10.38;7.07;;;17.60;41.40;;;;;;7706692;22;80399;-61
2022/11/18 09:08:20;;;;;;;10.27;7.47;;;17.50;41.40;;;;;;7706685;22;80913;-61
2022/11/18 09:11:21;;;;;;;11.40;8.15;;;17.50;41.20;;;;;;7706293;22;81661;-61
2022/11/18 09:14:21;;;;;;;10.00;6.95;;;17.50;41.30;;;;;;7712504;22;80030;-58
2022/11/18 09:17:22;;;;;;;8.80;5.65;;;17.60;41.90;;;;;;7712826;22;81443;-58
2022/11/18 09:20:22;;;;;;;7.88;5.25;;;18.20;42.10;;;;;;7714338;22;80358;-59
2022/11/18 09:23:23;;;;;;;7.45;4.95;;;18.50;41.90;;;;;;7714046;22;81419;-58
2022/11/18 09:26:23;;;;;;;9.52;5.47;;;18.80;42.00;;;;;;7715490;22;80023;-59
2022/11/18 09:29:25;;;;;;;6.78;4.80;;;19.10;42.00;;;;;;7714530;22;80278;-59
2022/11/18 09:32:25;;;;;;;6.53;4.78;;;19.20;41.80;;;;;;7715044;22;80515;-59
2022/11/18 09:35:26;;;;;;;7.32;4.97;;;19.40;41.50;;;;;;7713136;22;80680;-59
2022/11/18 09:38:26;;;;;;;8.13;4.60;;;19.50;41.50;;;;;;7713397;22;80590;-59
2022/11/18 09:41:26;;;;;;;6.68;4.32;;;19.70;41.20;;;;;;7712188;22;80161;-59
2022/11/18 09:44:27;;;;;;;8.25;5.30;;;19.70;40.90;;;;;;7713708;22;81109;-60
2022/11/18 09:47:27;;;;;;;6.07;4.32;;;19.90;40.80;;;;;;7684513;22;82596;-59
2022/11/18 09:50:28;;;;;;;6.20;4.78;;;19.90;40.50;;;;;;7715368;22;82039;-59
2022/11/18 09:53:28;;;;;;;6.43;4.45;;;20.10;40.00;;;;;;7714065;22;80237;-60
2022/11/18 09:56:29;;;;;;;6.53;4.75;;;20.20;39.80;;;;;;7712400;22;80632;-60
2022/11/18 09:59:29;;;;;;;6.95;4.93;;;20.30;39.70;;;;;;7715246;22;80032;-59
2022/11/18 10:02:30;;;;;;;8.43;5.75;;;20.40;38.90;;;;;;7713892;22;80560;-59
2022/11/18 10:05:31;;;;;;;7.60;4.70;;;20.60;38.80;;;;;;7712422;22;80924;-60
2022/11/18 10:08:32;;;;;;;5.97;4.70;;;20.70;38.60;;;;;;7713887;22;80772;-60
2022/11/18 10:11:33;;;;;;;10.65;4.85;;;20.80;38.50;;;;;;7713381;22;80701;-60
2022/11/18 10:14:33;;;;;;;6.53;4.93;;;20.90;38.40;;;;;;7713362;22;80998;-60
2022/11/18 10:17:34;;;;;;;7.18;4.68;;;21.00;38.30;;;;;;7711195;22;80022;-59
2022/11/18 10:20:34;;;;;;;7.88;5.32;;;21.00;38.20;;;;;;7685253;22;81544;-60
2022/11/18 10:23:34;;;;;;;9.15;4.97;;;21.10;38.20;;;;;;7711532;22;80993;-59
2022/11/18 10:26:35;;;;;;;7.88;5.43;;;21.20;38.10;;;;;;7714228;22;80592;-60
2022/11/18 10:29:35;;;;;;;6.72;4.97;;;21.20;38.00;;;;;;7712855;22;81340;-59
2022/11/18 10:32:36;;;;;;;5.97;4.00;;;21.30;38.00;;;;;;7714041;22;81721;-59
2022/11/18 10:35:36;;;;;;;7.25;4.75;;;21.40;37.80;;;;;;7713113;22;82556;-60
2022/11/18 10:38:37;;;;;;;7.05;4.95;;;21.40;37.80;;;;;;7711181;22;81272;-60
2022/11/18 10:41:37;;;;;;;6.22;4.43;;;21.40;37.60;;;;;;7712541;22;81420;-60
2022/11/18 10:44:38;;;;;;;8.40;5.05;;;21.50;37.60;;;;;;7714656;22;81405;-61
2022/11/18 10:47:38;;;;;;;8.20;4.90;;;21.50;37.60;;;;;;7712267;22;80908;-60
2022/11/18 10:50:39;;;;;;;7.95;5.47;;;21.60;37.50;;;;;;7713540;22;82070;-60
2022/11/18 10:53:41;;;;;;;6.78;4.97;;;21.60;37.50;;;;;;7706723;22;80866;-60
2022/11/18 10:56:41;;;;;;;7.68;5.13;;;21.60;37.30;;;;;;7713230;22;80273;-60
2022/11/18 10:59:42;;;;;;;8.35;5.13;;;21.70;37.30;;;;;;7711874;22;81326;-60
2022/11/18 11:02:42;;;;;;;6.85;4.45;;;21.70;37.20;;;;;;7713345;22;81419;-60
2022/11/18 11:05:43;;;;;;;8.40;5.00;;;21.70;37.10;;;;;;7713161;22;80589;-60
2022/11/18 11:08:43;;;;;;;6.55;4.78;;;21.70;37.00;;;;;;7711233;22;80222;-60
2022/11/18 11:11:44;;;;;;;7.68;5.13;;;21.70;37.00;;;;;;7712762;22;80080;-55
2022/11/18 11:14:45;;;;;;;7.40;5.20;;;21.80;37.10;;;;;;7710752;22;80385;-56
2022/11/18 11:17:45;;;;;;;6.95;4.75;;;21.80;36.90;;;;;;7711809;22;81596;-55
2022/11/18 11:20:46;;;;;;;7.45;5.05;;;21.80;36.90;;;;;;7713286;22;80289;-56
2022/11/18 11:23:46;;;;;;;5.75;4.70;;;21.80;36.90;;;;;;7711947;22;80698;-54
2022/11/18 11:26:46;;;;;;;7.40;5.10;;;21.80;37.00;;;;;;7711948;22;80571;-55
2022/11/18 11:29:47;;;;;;;6.97;4.97;;;21.80;36.90;;;;;;7710389;22;80916;-56
2022/11/18 11:32:47;;;;;;;6.20;4.65;;;21.80;37.00;;;;;;7703908;22;81733;-55
2022/11/18 11:35:48;;;;;;;6.72;5.07;;;21.90;37.00;;;;;;7714316;22;80759;-54
2022/11/18 11:38:48;;;;;;;8.07;5.00;;;21.90;37.00;;;;;;7712969;22;80578;-54
2022/11/18 11:41:49;;;;;;;7.35;5.13;;;21.90;36.80;;;;;;7714795;22;81162;-56
2022/11/18 11:44:49;;;;;;;8.73;5.40;;;22.00;36.90;;;;;;7712433;22;80282;-56
2022/11/18 11:47:54;;;;;;;6.50;4.65;;;22.00;36.80;;;;;;7711100;22;80309;-56
2022/11/18 11:50:55;;;;;;;7.25;5.40;;;22.00;37.00;;;;;;7714339;22;80348;-59
2022/11/18 11:53:56;;;;;;;6.63;5.10;;;22.00;36.80;;;;;;7714647;22;80930;-60
2022/11/18 11:56:56;;;;;;;8.40;5.78;;;22.00;36.60;;;;;;7713361;22;80395;-61
2022/11/18 11:59:57;;;;;;;10.38;5.57;;;22.00;36.60;;;;;;7720386;22;79998;-60
2022/11/18 12:02:57;;;;;;;7.22;5.30;;;22.00;36.50;;;;;;7719188;22;80646;-60
2022/11/18 12:05:57;;;;;;;8.27;5.80;;;22.00;36.40;;;;;;7717937;22;80379;-60
2022/11/18 12:08:58;;;;;;;9.45;5.90;;;22.00;36.50;;;;;;7714187;22;80404;-57
2022/11/18 12:11:58;;;;;;;8.30;6.18;;;22.00;36.30;;;;;;7705547;22;81081;-55
2022/11/18 12:14:59;;;;;;;9.30;6.03;;;22.00;36.30;;;;;;7713493;22;80684;-54
2022/11/18 12:17:59;;;;;;;10.55;6.32;;;22.00;36.30;;;;;;7706579;22;80637;-57
2022/11/18 12:21:00;;;;;;;7.88;5.78;;;22.00;36.20;;;;;;7710276;22;81199;-57
2022/11/18 12:24:00;;;;;;;9.60;6.28;;;22.10;36.20;;;;;;7706422;22;80728;-57
2022/11/18 12:27:01;;;;;;;10.82;6.30;;;22.10;36.10;;;;;;7710277;22;80731;-59
2022/11/18 12:30:02;;;;;;;9.25;6.05;;;22.10;36.10;;;;;;7709879;22;82367;-60
2022/11/18 12:33:03;;;;;;;11.50;6.55;;;22.10;36.10;;;;;;7707416;22;81625;-59
2022/11/18 12:36:03;;;;;;;9.50;6.15;;;22.10;36.00;;;;;;7709104;22;80413;-60
2022/11/18 12:39:04;;;;;;;12.23;7.03;;;22.10;36.00;;;;;;7711424;22;80360;-60
2022/11/18 12:45:23;;;;;;;10.68;6.40;;;22.10;35.90;;;;;;7709780;22;80178;-56
2022/11/18 12:48:24;;;;;;;10.57;6.32;;;22.20;36.10;;;;;;7711655;22;81896;-58
2022/11/18 12:51:24;;;;;;;9.93;6.38;;;22.20;36.00;;;;;;7710841;22;80766;-57
2022/11/18 12:54:25;;;;;;;10.98;6.95;;;22.10;36.00;;;;;;7708023;22;81871;-58
2022/11/18 12:57:26;;;;;;;9.35;6.60;;;22.20;36.10;;;;;;7708817;22;80987;-58
2022/11/18 13:00:26;;;;;;;10.10;7.00;;;22.20;36.00;;;;;;7712465;22;79917;-56
2022/11/18 13:03:27;;;;;;;11.10;6.82;;;22.20;36.10;;;;;;7712282;22;81161;-52
2022/11/18 13:06:28;;;;;;;9.85;6.85;;;22.30;36.40;;;;;;7699379;22;80765;-57
2022/11/18 13:09:29;;;;;;;10.57;6.55;;;22.30;36.30;;;;;;7712918;22;80463;-54
2022/11/18 13:12:29;;;;;;;14.70;7.03;;;22.30;36.30;;;;;;7712856;22;80864;-55
2022/11/18 13:18:49;;;;;;;12.02;7.82;;;22.40;36.40;;;;;;7709825;22;80904;-56
2022/11/18 13:25:08;;;;;;;11.13;6.68;;;22.40;36.60;;;;;;7713954;22;80404;-57
2022/11/18 13:28:10;;;;;;;10.40;6.90;;;22.40;36.50;;;;;;7717054;22;81203;-57
2022/11/18 13:31:11;;;;;;;12.95;7.15;;;22.50;36.60;;;;;;7702194;22;80777;-58
2022/11/18 13:34:11;;;;;;;10.65;6.95;;;22.50;36.50;;;;;;7711374;22;81699;-56
2022/11/18 13:37:11;;;;;;;13.38;7.50;;;22.50;36.50;;;;;;7705801;22;80331;-60
2022/11/18 13:40:12;;;;;;;10.90;7.20;;;22.40;36.40;;;;;;7708162;22;81098;-57
2022/11/18 13:43:12;;;;;;;12.75;7.47;;;22.40;36.30;;;;;;7714330;22;80073;-57
2022/11/18 13:46:13;;;;;;;13.63;8.15;;;22.40;36.30;;;;;;7713068;22;80878;-54
2022/11/18 13:49:13;;;;;;;10.48;7.43;;;22.40;36.20;;;;;;7714188;22;80342;-57
2022/11/18 13:52:14;;;;;;;10.88;6.88;;;22.40;35.90;;;;;;7714208;22;81088;-57
2022/11/18 13:55:15;;;;;;;10.35;7.50;;;22.40;36.00;;;;;;7713816;22;80446;-57
2022/11/18 13:58:15;;;;;;;12.40;7.00;;;22.40;36.00;;;;;;7712298;22;80820;-60
2022/11/18 14:01:15;;;;;;;13.18;7.88;;;22.40;35.80;;;;;;7712549;22;81317;-60
2022/11/18 14:04:16;;;;;;;11.95;8.05;;;22.40;35.80;;;;;;7710821;22;81684;-61
2022/11/18 14:07:16;;;;;;;10.95;7.75;;;22.40;35.60;;;;;;7711286;22;80964;-60
2022/11/18 14:10:17;;;;;;;13.93;8.55;;;22.40;35.60;;;;;;7711419;22;81816;-60
2022/11/18 14:13:18;;;;;;;15.07;8.27;;;22.30;35.60;;;;;;7714816;22;81306;-62
2022/11/18 14:16:19;;;;;;;11.60;7.88;;;22.30;35.70;;;;;;7680276;22;82695;-61
2022/11/18 14:19:19;;;;;;;17.15;8.35;;;22.30;35.70;;;;;;7665296;22;81994;-60
2022/11/18 14:22:20;;;;;;;13.05;8.10;;;22.30;35.60;;;;;;7656713;22;81538;-60
2022/11/18 14:25:20;;;;;;;12.05;7.60;;;22.40;35.70;;;;;;7655329;22;81727;-59
2022/11/18 14:28:21;;;;;;;13.40;8.05;;;22.40;35.80;;;;;;7657330;22;80749;-58
2022/11/18 14:31:21;;;;;;;14.55;7.65;;;22.30;35.90;;;;;;7657199;22;81270;-58
2022/11/18 14:34:22;;;;;;;12.02;7.70;;;22.30;35.80;;;;;;7657327;22;80671;-59
2022/11/18 14:37:23;;;;;;;12.98;7.78;;;22.40;35.70;;;;;;7656866;22;81495;-59
2022/11/18 14:40:23;;;;;;;12.52;7.72;;;22.40;35.80;;;;;;7659226;22;80954;-59
2022/11/18 14:43:24;;;;;;;14.50;7.88;;;22.40;35.60;;;;;;7660322;22;81274;-58
2022/11/18 14:46:24;;;;;;;13.30;7.75;;;22.40;35.60;;;;;;7658116;22;81167;-59
2022/11/18 14:49:25;;;;;;;12.20;7.70;;;22.40;35.50;;;;;;7655790;22;80912;-59
2022/11/18 14:52:25;;;;;;;12.68;7.97;;;22.50;35.50;;;;;;7660305;22;81049;-60
2022/11/18 14:55:26;;;;;;;11.48;7.80;;;22.50;35.50;;;;;;7658188;22;80624;-59
2022/11/18 14:58:26;;;;;;;13.63;8.45;;;22.50;35.30;;;;;;7659477;22;80439;-59
2022/11/18 15:01:28;;;;;;;11.20;8.25;;;22.50;35.30;;;;;;7662755;22;80623;-59
2022/11/18 15:04:28;;;;;;;12.35;8.23;;;22.50;35.20;;;;;;7669753;22;80012;-60
2022/11/18 15:07:29;;;;;;;11.63;8.18;;;22.50;35.00;;;;;;7665743;22;81032;-59
2022/11/18 15:10:29;;;;;;;13.48;8.70;;;22.50;35.30;;;;;;7465498;22;82227;-58
2022/11/18 15:13:30;;;;;;;12.35;7.30;;;22.60;35.30;;;;;;7715965;22;81580;-58
2022/11/18 15:16:30;;;;;;;13.77;8.05;;;22.50;35.30;;;;;;7704531;22;80428;-60
2022/11/18 15:19:31;;;;;;;15.15;8.45;;;22.60;35.40;;;;;;7713479;22;81082;-57
2022/11/18 15:22:31;;;;;;;13.55;7.88;;;22.60;35.30;;;;;;7713545;22;81678;-57
2022/11/18 15:25:32;;;;;;;11.07;7.68;;;22.60;35.40;;;;;;7713842;22;81580;-66
2022/11/18 15:28:32;;;;;;;10.52;7.32;;;22.60;35.30;;;;;;7713494;22;80233;-68
2022/11/18 15:31:33;;;;;;;12.00;8.07;;;22.60;35.30;;;;;;7716260;22;81230;-70
2022/11/18 15:34:33;;;;;;;11.00;7.20;;;22.60;35.20;;;;;;7714884;22;80728;-71
2022/11/18 15:37:34;;;;;;;13.68;8.70;;;22.60;35.90;;;;;;7714801;22;81266;-68
2022/11/18 15:40:34;;;;;;;10.73;7.28;;;22.60;35.00;;;;;;7713861;22;80351;-67
2022/11/18 15:43:34;;;;;;;13.18;6.93;;;22.60;35.00;;;;;;7715074;22;81941;-60
2022/11/18 15:46:35;;;;;;;10.52;7.63;;;22.60;34.70;;;;;;7692880;22;81256;-59
2022/11/18 15:49:35;;;;;;;10.30;7.45;;;22.60;34.60;;;;;;7714371;22;80445;-57
2022/11/18 15:52:36;;;;;;;11.77;7.82;;;22.60;34.60;;;;;;7711893;22;81373;-59
2022/11/18 15:55:36;;;;;;;12.60;8.07;;;22.60;34.70;;;;;;7713276;22;80446;-59
2022/11/18 15:58:37;;;;;;;12.85;7.28;;;22.60;34.80;;;;;;7714124;22;82174;-54
2022/11/18 16:01:37;;;;;;;14.75;8.05;;;22.60;35.00;;;;;;7711413;22;80035;-58
2022/11/18 16:04:38;;;;;;;11.85;7.68;;;22.70;35.40;;;;;;7710364;22;80950;-61
2022/11/18 16:07:39;;;;;;;12.05;7.82;;;22.70;35.60;;;;;;7705817;22;80854;-61
2022/11/18 16:13:58;;;;;;;12.85;7.97;;;22.70;35.70;;;;;;7699732;22;85048;-61